createdAt,value
2018-12-05T00:01:56.567Z,1.90
2018-12-05T00:04:26.225Z,1.90
2018-12-05T00:06:55.825Z,1.90
2018-12-05T00:09:25.428Z,1.80
2018-12-05T00:11:55.093Z,1.70
2018-12-05T00:14:24.703Z,1.70
2018-12-05T00:16:54.301Z,1.70
2018-12-05T00:19:23.866Z,1.80
2018-12-05T00:21:53.435Z,1.80
2018-12-05T00:24:23.091Z,1.80
2018-12-05T00:26:52.766Z,1.80
2018-12-05T00:29:22.342Z,1.70
2018-12-05T00:31:51.957Z,1.70
2018-12-05T00:34:21.619Z,1.70
2018-12-05T00:36:51.205Z,1.70
2018-12-05T00:39:20.809Z,1.80
2018-12-05T00:41:50.411Z,1.70
2018-12-05T00:44:20.076Z,1.70
2018-12-05T00:46:49.727Z,1.70
2018-12-05T00:49:19.452Z,1.70
2018-12-05T00:51:49.076Z,1.70
2018-12-05T00:54:18.669Z,1.70
2018-12-05T00:56:48.509Z,1.70
2018-12-05T00:59:18.143Z,1.60
2018-12-05T01:01:47.752Z,1.70
2018-12-05T01:04:17.381Z,1.60
2018-12-05T01:06:47.962Z,1.60
2018-12-05T01:09:18.611Z,1.50
2018-12-05T01:11:49.174Z,1.50
2018-12-05T01:14:19.614Z,1.50
2018-12-05T01:16:49.299Z,1.50
2018-12-05T01:19:18.904Z,1.50
2018-12-05T01:21:48.519Z,1.60
2018-12-05T01:24:18.259Z,1.60
2018-12-05T01:26:48.245Z,1.60
2018-12-05T01:29:17.843Z,1.60
2018-12-05T01:31:47.527Z,1.60
2018-12-05T01:34:17.145Z,1.60
2018-12-05T01:36:46.770Z,1.50
2018-12-05T01:39:16.351Z,1.50
2018-12-05T01:41:47.040Z,1.50
2018-12-05T01:44:16.639Z,1.50
2018-12-05T01:46:46.431Z,1.50
2018-12-05T01:49:16.057Z,1.50
2018-12-05T01:51:47.992Z,1.50
2018-12-05T01:54:17.615Z,1.50
2018-12-05T01:56:47.818Z,1.50
2018-12-05T01:59:17.640Z,1.60
2018-12-05T02:01:47.354Z,1.60
2018-12-05T02:04:16.935Z,1.60
2018-12-05T16:38:41.341Z,1.60
2018-12-05T16:41:11.826Z,1.80
2018-12-05T16:43:41.630Z,1.70
2018-12-05T16:46:21.412Z,1.70
2018-12-05T16:48:51.532Z,1.70
2018-12-05T16:51:21.248Z,1.80
2018-12-05T16:53:51.449Z,1.80
2018-12-05T16:56:21.098Z,1.70
2018-12-05T16:58:50.763Z,1.60
2018-12-05T17:01:21.038Z,1.60
2018-12-05T17:03:50.824Z,1.50
2018-12-05T17:06:20.692Z,1.50
2018-12-05T17:08:51.292Z,1.50
2018-12-05T17:11:21.572Z,1.50
2018-12-05T17:13:51.318Z,1.50
2018-12-05T17:16:21.120Z,1.40
2018-12-05T17:18:50.870Z,1.40
2018-12-05T17:21:21.255Z,1.30
2018-12-05T17:23:52.142Z,1.30
2018-12-05T17:26:25.385Z,1.20
2018-12-05T17:28:55.099Z,1.20
2018-12-05T17:31:25.052Z,1.10
2018-12-05T17:33:58.167Z,1.10
2018-12-05T17:36:27.858Z,1.00
2018-12-05T17:38:57.496Z,1.00
2018-12-05T17:41:27.759Z,0.90
2018-12-05T17:43:57.419Z,0.90
2018-12-05T17:46:27.246Z,0.80
2018-12-05T17:48:56.880Z,0.80
2018-12-05T17:51:26.579Z,0.70
2018-12-05T17:53:56.177Z,0.70
2018-12-05T17:56:25.882Z,0.70
2018-12-05T17:58:55.573Z,0.60
2018-12-05T18:01:25.514Z,0.60
2018-12-05T18:04:00.842Z,0.60
2018-12-05T18:06:30.708Z,0.60
2018-12-05T18:09:00.480Z,0.60
2018-12-05T18:11:30.703Z,0.60
2018-12-05T18:14:00.442Z,0.60
2018-12-05T18:16:30.356Z,0.70
2018-12-05T18:19:00.081Z,0.70
2018-12-05T18:21:29.773Z,0.70
2018-12-05T18:23:59.652Z,0.70
2018-12-05T18:30:22.610Z,0.80
2018-12-05T18:32:58.341Z,0.80
2018-12-05T18:35:28.447Z,0.80
2018-12-05T18:37:58.864Z,0.80
2018-12-05T18:40:28.830Z,0.90
2018-12-05T18:42:58.733Z,0.90
2018-12-05T18:45:28.648Z,0.90
2018-12-05T18:47:58.732Z,0.90
2018-12-05T18:50:28.727Z,0.90
2018-12-05T18:52:58.853Z,0.90
2018-12-05T18:55:28.825Z,0.90
2018-12-05T18:57:58.609Z,0.80
2018-12-05T19:00:28.378Z,0.80
2018-12-05T19:02:58.548Z,0.80
2018-12-05T19:05:28.678Z,0.80
2018-12-05T19:07:58.705Z,0.80
2018-12-05T19:10:28.549Z,0.80
2018-12-05T19:12:58.539Z,0.70
2018-12-05T19:15:28.269Z,0.70
2018-12-05T19:17:57.983Z,0.70
2018-12-05T19:20:27.927Z,0.70
2018-12-05T19:22:57.677Z,0.60
2018-12-05T19:25:27.342Z,0.60
2018-12-05T19:27:57.020Z,0.70
2018-12-05T19:30:26.819Z,0.70
2018-12-05T19:32:56.512Z,0.70
2018-12-05T19:35:28.213Z,0.70
2018-12-05T19:38:02.744Z,0.70
2018-12-05T19:40:32.365Z,0.70
2018-12-05T19:43:02.548Z,0.70
2018-12-05T19:45:32.177Z,0.60
2018-12-05T19:48:02.003Z,0.70
2018-12-05T19:50:31.757Z,0.70
2018-12-05T19:53:01.462Z,0.70
2018-12-05T19:55:31.154Z,0.70
2018-12-05T19:58:00.750Z,0.60
2018-12-05T20:00:30.499Z,0.60
2018-12-05T20:03:00.159Z,0.60
2018-12-05T20:05:29.893Z,0.60
2018-12-05T20:07:59.517Z,0.70
2018-12-05T20:10:29.380Z,0.70
2018-12-05T20:12:59.018Z,0.70
2018-12-05T20:15:28.773Z,0.80
2018-12-05T20:17:58.597Z,0.70
2018-12-05T20:20:28.359Z,0.70
2018-12-05T20:22:58.104Z,0.80
2018-12-05T20:25:27.882Z,0.70
2018-12-05T20:28:00.974Z,0.70
2018-12-05T20:30:30.671Z,0.70
2018-12-05T20:33:00.648Z,0.70
2018-12-05T20:35:30.253Z,0.70
2018-12-05T20:37:59.916Z,0.60
2018-12-05T20:40:29.711Z,0.70
2018-12-05T20:42:59.404Z,0.60
2018-12-05T20:45:30.175Z,0.60
2018-12-05T20:48:01.024Z,0.60
2018-12-05T20:50:32.147Z,0.60
2018-12-05T20:53:01.850Z,0.50
2018-12-05T20:55:31.614Z,0.50
2018-12-05T20:58:01.901Z,0.50
2018-12-05T21:00:32.015Z,0.30
2018-12-05T21:03:02.016Z,0.30
2018-12-05T21:05:32.132Z,0.30
2018-12-05T21:08:02.270Z,0.30
2018-12-05T21:10:32.190Z,0.30
2018-12-05T21:13:03.659Z,0.30
2018-12-05T21:15:33.673Z,0.30
2018-12-05T21:18:05.099Z,0.30
2018-12-05T21:20:36.869Z,0.20
2018-12-05T21:23:06.589Z,0.20
2018-12-05T21:25:38.020Z,0.20
2018-12-05T21:28:08.184Z,0.10
2018-12-05T21:30:39.217Z,0.10
2018-12-05T21:33:09.000Z,0.10
2018-12-05T21:35:38.590Z,0.10
2018-12-05T21:38:08.523Z,0.00
2018-12-05T21:40:38.405Z,0.00
2018-12-05T21:43:08.796Z,0.00
2018-12-05T21:45:40.730Z,0.00
2018-12-05T21:48:12.238Z,0.00
2018-12-05T21:50:43.726Z,0.00
2018-12-05T21:53:13.782Z,0.10
2018-12-05T21:55:43.638Z,0.10
2018-12-05T21:58:13.387Z,0.10
2018-12-05T22:00:44.867Z,0.10
2018-12-05T22:03:14.481Z,0.00
2018-12-05T22:05:44.428Z,0.00
2018-12-05T22:08:14.109Z,0.10
2018-12-05T22:10:43.793Z,0.20
2018-12-05T22:13:13.496Z,0.20
2018-12-05T22:15:43.930Z,0.20
2018-12-05T22:18:13.654Z,0.20
2018-12-05T22:20:43.244Z,0.10
2018-12-05T22:23:12.916Z,0.30
2018-12-05T22:25:42.510Z,0.30
2018-12-05T22:28:12.103Z,0.30
2018-12-05T22:30:43.337Z,0.30
2018-12-05T22:33:12.986Z,0.30
2018-12-05T22:35:42.645Z,0.30
2018-12-05T22:38:12.271Z,0.40
2018-12-05T22:40:41.941Z,0.40
2018-12-05T22:43:11.679Z,0.40
2018-12-05T22:45:43.263Z,0.40
2018-12-05T22:48:14.015Z,0.40
2018-12-05T22:50:49.042Z,0.30
2018-12-05T22:53:24.700Z,0.40
2018-12-05T22:55:54.502Z,0.40
2018-12-05T22:58:24.354Z,0.40
2018-12-05T23:01:01.506Z,0.50
2018-12-05T23:03:32.716Z,0.50
2018-12-05T23:06:10.757Z,0.40
2018-12-05T23:08:47.770Z,0.40
2018-12-05T23:11:22.950Z,0.40
2018-12-05T23:13:52.847Z,0.50
2018-12-05T23:16:22.691Z,0.50
2018-12-05T23:18:52.367Z,0.60
2018-12-05T23:21:21.991Z,0.70
2018-12-05T23:23:52.241Z,0.60
2018-12-05T23:26:21.832Z,0.70
2018-12-05T23:28:51.466Z,0.70
2018-12-05T23:31:21.665Z,0.70
2018-12-05T23:33:51.274Z,0.70
2018-12-05T23:36:20.921Z,0.70
2018-12-05T23:38:51.775Z,0.70
2018-12-05T23:41:21.525Z,0.70
2018-12-05T23:43:51.133Z,0.70
2018-12-05T23:46:20.749Z,0.70
2018-12-05T23:48:51.014Z,0.70
2018-12-05T23:51:21.086Z,0.70
2018-12-05T23:53:51.685Z,0.70
2018-12-05T23:56:21.709Z,0.80
2018-12-05T23:58:51.366Z,0.80
